createdAt,value
2018-07-14T00:00:05.843Z,79.67
2018-07-14T00:01:16.135Z,79.85
2018-07-14T00:02:26.181Z,79.73
2018-07-14T00:03:32.461Z,79.70
2018-07-14T00:04:38.728Z,79.22
2018-07-14T00:05:45.004Z,78.68
2018-07-14T00:06:52.199Z,78.29
2018-07-14T00:07:58.213Z,79.30
2018-07-14T00:09:03.682Z,79.61
2018-07-14T00:10:10.256Z,79.09
2018-07-14T00:11:15.894Z,79.35
2018-07-14T00:12:22.617Z,80.08
2018-07-14T00:13:29.671Z,80.24
2018-07-14T00:14:35.659Z,79.66
2018-07-14T00:15:41.634Z,78.92
2018-07-14T00:16:47.899Z,79.35
2018-07-14T00:17:54.136Z,79.35
2018-07-14T00:19:00.088Z,79.37
2018-07-14T00:20:05.675Z,79.62
2018-07-14T00:21:11.612Z,79.33
2018-07-14T00:22:17.875Z,79.75
2018-07-14T00:23:23.924Z,79.75
2018-07-14T00:24:30.323Z,80.50
2018-07-14T00:25:36.600Z,80.29
2018-07-14T00:26:42.615Z,80.51
2018-07-14T00:27:48.881Z,80.52
2018-07-14T00:28:55.927Z,79.89
2018-07-14T00:30:02.193Z,79.35
2018-07-14T00:31:08.168Z,79.62
2018-07-14T00:32:14.400Z,80.58
2018-07-14T00:33:20.634Z,80.81
2018-07-14T00:34:26.915Z,81.35
2018-07-14T00:35:33.155Z,81.37
2018-07-14T00:36:39.391Z,81.84
2018-07-14T00:37:45.640Z,81.35
2018-07-14T00:38:51.900Z,81.74
2018-07-14T00:39:58.161Z,82.30
2018-07-14T00:41:04.422Z,81.50
2018-07-14T00:42:10.759Z,81.80
2018-07-14T00:43:17.007Z,82.23
2018-07-14T00:44:23.311Z,81.99
2018-07-14T00:45:29.589Z,82.31
2018-07-14T00:46:35.850Z,81.94
2018-07-14T00:47:42.111Z,82.44
2018-07-14T00:48:48.081Z,81.63
2018-07-14T00:49:54.406Z,80.60
2018-07-14T00:51:00.312Z,81.11
2018-07-14T00:52:06.209Z,81.29
2018-07-14T00:53:12.484Z,81.63
2018-07-14T00:54:18.731Z,82.13
2018-07-14T00:55:24.636Z,81.79
2018-07-14T00:56:30.883Z,81.71
2018-07-14T00:57:37.149Z,81.53
2018-07-14T00:58:43.420Z,81.82
2018-07-14T00:59:49.695Z,81.75
2018-07-14T01:00:55.425Z,81.61
2018-07-14T01:02:01.531Z,82.40
2018-07-14T01:03:07.692Z,82.44
2018-07-14T01:04:14.374Z,82.22
2018-07-14T01:05:20.404Z,82.30
2018-07-14T01:06:26.673Z,82.14
2018-07-14T01:07:32.920Z,81.74
2018-07-14T01:08:39.188Z,81.91
2018-07-14T01:09:45.454Z,81.90
2018-07-14T01:10:51.736Z,81.34
2018-07-14T01:11:58.020Z,81.27
2018-07-14T01:13:04.279Z,81.68
2018-07-14T01:14:10.137Z,82.07
2018-07-14T01:15:16.453Z,82.92
2018-07-14T01:16:22.505Z,82.57
2018-07-14T01:17:29.976Z,82.81
2018-07-14T01:18:35.610Z,82.91
2018-07-14T01:19:41.183Z,83.19
2018-07-14T01:20:47.464Z,82.60
2018-07-14T01:21:53.749Z,82.72
2018-07-14T01:22:59.711Z,82.59
2018-07-14T01:24:05.691Z,82.60
2018-07-14T01:25:11.700Z,82.04
2018-07-14T01:26:17.696Z,82.50
2018-07-14T01:27:23.329Z,81.85
2018-07-14T01:28:29.605Z,81.87
2018-07-14T01:29:35.864Z,81.55
2018-07-14T01:30:42.162Z,81.45
2018-07-14T01:31:48.414Z,81.39
2018-07-14T01:32:54.428Z,81.39
2018-07-14T01:34:00.673Z,81.17
2018-07-14T01:35:06.952Z,81.48
2018-07-14T01:36:13.231Z,82.22
2018-07-14T01:37:19.492Z,82.92
2018-07-14T01:38:25.735Z,83.17
2018-07-14T01:39:31.983Z,83.90
2018-07-14T01:40:38.977Z,83.58
2018-07-14T01:41:46.411Z,83.15
2018-07-14T01:42:52.384Z,82.99
2018-07-14T01:43:58.655Z,82.47
2018-07-14T01:45:04.308Z,82.31
2018-07-14T01:46:10.595Z,82.98
2018-07-14T01:47:16.854Z,82.85
2018-07-14T01:48:23.115Z,82.93
2018-07-14T01:49:29.087Z,83.61
2018-07-14T01:50:35.364Z,83.23
2018-07-14T01:51:41.036Z,82.54
2018-07-14T01:52:47.287Z,82.56
2018-07-14T01:53:53.540Z,83.32
2018-07-14T01:54:59.817Z,83.08
2018-07-14T01:56:06.100Z,83.40
2018-07-14T01:57:12.739Z,84.01
2018-07-14T01:58:19.016Z,84.21
2018-07-14T01:59:25.281Z,84.03
2018-07-14T02:00:31.567Z,84.75
2018-07-14T02:01:37.839Z,84.94
2018-07-14T02:02:44.108Z,84.85
2018-07-14T02:03:50.369Z,84.91
2018-07-14T02:04:56.623Z,84.34
2018-07-14T02:06:02.900Z,84.19
2018-07-14T02:07:09.200Z,83.30
2018-07-14T02:08:15.215Z,83.52
2018-07-14T02:09:21.512Z,83.74
2018-07-14T02:10:27.875Z,83.79
2018-07-14T02:11:34.171Z,84.40
2018-07-14T02:12:40.423Z,85.56
2018-07-14T02:13:46.675Z,86.00
2018-07-14T02:14:52.915Z,86.14
2018-07-14T02:15:59.179Z,86.59
2018-07-14T02:17:05.264Z,85.93
2018-07-14T02:18:10.962Z,86.31
2018-07-14T02:19:17.187Z,86.48
2018-07-14T02:20:23.480Z,86.49
2018-07-14T02:21:29.751Z,86.40
2018-07-14T02:22:36.016Z,85.50
2018-07-14T02:23:42.296Z,84.97
2018-07-14T02:24:48.552Z,85.03
2018-07-14T02:25:54.839Z,85.53
2018-07-14T02:27:01.061Z,85.54
2018-07-14T02:28:06.957Z,85.58
2018-07-14T02:29:13.238Z,85.79
2018-07-14T02:30:19.185Z,85.55
2018-07-14T02:31:25.103Z,86.77
2018-07-14T02:32:31.765Z,86.68
2018-07-14T02:33:38.746Z,86.35
2018-07-14T02:34:45.007Z,87.09
2018-07-14T02:35:51.307Z,87.24
2018-07-14T02:36:57.562Z,87.15
2018-07-14T02:38:03.797Z,86.81
2018-07-14T02:39:15.162Z,86.62
2018-07-14T02:40:21.141Z,86.95
2018-07-14T02:41:27.411Z,87.06
2018-07-14T02:42:33.673Z,86.64
2018-07-14T02:43:39.966Z,86.91
2018-07-14T02:44:46.205Z,87.08
2018-07-14T02:45:52.477Z,87.61
2018-07-14T02:46:58.714Z,87.60
2018-07-14T02:48:04.613Z,88.12
2018-07-14T02:49:11.514Z,89.22
2018-07-14T02:50:19.779Z,88.62
2018-07-14T02:51:26.099Z,88.27
2018-07-14T02:52:32.394Z,88.60
2018-07-14T02:53:38.394Z,88.94
2018-07-14T02:54:44.673Z,88.98
2018-07-14T02:55:51.147Z,88.51
2018-07-14T02:56:57.079Z,88.54
2018-07-14T02:58:03.347Z,88.67
2018-07-14T02:59:09.631Z,88.44
2018-07-14T03:00:15.900Z,89.24
2018-07-14T03:01:21.816Z,89.50
2018-07-14T03:02:28.057Z,89.01
2018-07-14T03:03:34.048Z,88.66
2018-07-14T03:04:39.960Z,89.21
2018-07-14T03:05:46.220Z,89.38
2018-07-14T03:06:52.268Z,88.77
2018-07-14T03:07:58.507Z,88.54
2018-07-14T03:09:03.850Z,88.64
2018-07-14T03:10:09.942Z,88.34
2018-07-14T03:11:16.217Z,89.16
2018-07-14T03:12:22.529Z,89.33
2018-07-14T03:13:28.766Z,90.22
2018-07-14T03:14:35.022Z,90.07
2018-07-14T03:15:41.284Z,89.05
2018-07-14T03:16:47.552Z,89.01
2018-07-14T03:17:53.838Z,89.18
2018-07-14T03:19:00.098Z,89.78
2018-07-14T03:20:06.048Z,90.18
2018-07-14T03:21:12.359Z,90.22
2018-07-14T03:22:18.340Z,90.05
2018-07-14T03:23:24.583Z,89.40
2018-07-14T03:24:31.597Z,89.54
2018-07-14T03:25:38.602Z,89.46
2018-07-14T03:26:44.883Z,89.66
2018-07-14T03:27:51.131Z,90.29
2018-07-14T03:28:57.396Z,90.56
2018-07-14T03:30:03.327Z,91.17
2018-07-14T03:31:09.601Z,91.97
2018-07-14T03:32:15.923Z,91.29
2018-07-14T03:33:22.197Z,91.06
2018-07-14T03:34:28.648Z,89.87
2018-07-14T03:35:34.884Z,89.61
2018-07-14T03:36:41.234Z,90.05
2018-07-14T03:37:47.648Z,90.48
2018-07-14T03:38:53.977Z,91.44
2018-07-14T03:40:01.137Z,91.71
2018-07-14T03:41:07.459Z,92.05
2018-07-14T03:42:13.706Z,92.16
2018-07-14T03:43:19.983Z,91.42
2018-07-14T03:44:26.249Z,90.34
2018-07-14T03:45:32.485Z,90.98
2018-07-14T03:46:38.785Z,91.09
2018-07-14T03:47:45.033Z,90.87
2018-07-14T03:48:51.240Z,90.88
2018-07-14T03:49:57.529Z,90.86
2018-07-14T03:51:03.766Z,90.72
2018-07-14T03:52:10.031Z,90.81
2018-07-14T03:53:16.289Z,90.38
2018-07-14T03:54:22.533Z,89.96
2018-07-14T03:55:28.803Z,89.78
2018-07-14T03:56:35.081Z,90.06
2018-07-14T03:57:41.391Z,90.66
2018-07-14T03:58:47.664Z,90.32
2018-07-14T03:59:53.958Z,90.88
2018-07-14T04:01:00.368Z,91.49
2018-07-14T04:02:06.301Z,91.63
2018-07-14T04:03:12.563Z,91.53
2018-07-14T04:04:18.807Z,91.89
2018-07-14T04:05:25.061Z,91.05
2018-07-14T04:06:31.394Z,90.47
2018-07-14T04:07:37.822Z,92.81
2018-07-14T04:08:44.076Z,95.21
2018-07-14T04:09:50.340Z,95.15
2018-07-14T04:10:56.303Z,95.82
2018-07-14T04:12:02.300Z,96.79
2018-07-14T04:13:08.360Z,96.84
2018-07-14T04:14:14.315Z,96.71
2018-07-14T04:15:20.216Z,97.09
2018-07-14T04:16:26.763Z,97.50
2018-07-14T04:17:33.753Z,96.74
2018-07-14T04:18:40.449Z,96.52
2018-07-14T04:19:47.976Z,96.18
2018-07-14T04:20:55.898Z,94.89
2018-07-14T04:22:03.412Z,93.51
2018-07-14T04:23:11.292Z,94.01
2018-07-14T04:24:18.478Z,95.70
2018-07-14T04:25:25.875Z,96.62
2018-07-14T04:26:33.352Z,96.99
2018-07-14T04:27:40.001Z,96.20
2018-07-14T04:28:47.118Z,95.33
2018-07-14T04:29:54.168Z,95.01
2018-07-14T04:31:00.441Z,94.30
2018-07-14T04:32:07.078Z,93.59
2018-07-14T04:33:13.929Z,94.08
2018-07-14T04:34:20.164Z,93.98
2018-07-14T04:35:26.418Z,93.46
2018-07-14T04:36:32.699Z,93.39
2018-07-14T04:37:39.011Z,93.22
2018-07-14T04:38:45.308Z,92.21
2018-07-14T04:39:51.568Z,92.02
2018-07-14T04:40:57.807Z,92.72
2018-07-14T04:42:04.184Z,92.64
2018-07-14T04:43:10.158Z,92.07
2018-07-14T04:44:16.441Z,92.83
2018-07-14T04:45:22.718Z,92.43
2018-07-14T04:46:28.715Z,91.82
2018-07-14T04:47:35.894Z,90.91
2018-07-14T04:48:42.174Z,91.57
2018-07-14T04:49:48.420Z,91.72
2018-07-14T04:50:54.706Z,90.76
2018-07-14T04:52:00.962Z,90.49
2018-07-14T04:53:07.300Z,92.53
2018-07-14T04:54:13.745Z,92.19
2018-07-14T04:55:20.002Z,93.21
2018-07-14T04:56:26.267Z,92.47
2018-07-14T04:57:32.177Z,91.62
2018-07-14T04:58:38.647Z,92.69
2018-07-14T04:59:44.896Z,93.56
2018-07-14T05:00:50.927Z,94.06
2018-07-14T05:01:56.885Z,93.01
2018-07-14T05:03:03.147Z,92.24
2018-07-14T05:04:09.128Z,92.11
2018-07-14T05:05:15.449Z,91.50
2018-07-14T05:06:21.789Z,92.49
2018-07-14T05:07:28.242Z,92.05
2018-07-14T05:08:34.515Z,93.39
2018-07-14T05:09:40.763Z,93.50
2018-07-14T05:10:47.036Z,93.27
2018-07-14T05:11:53.279Z,93.31
2018-07-14T05:12:59.565Z,93.14
2018-07-14T05:14:05.477Z,92.87
2018-07-14T05:15:11.739Z,91.79
2018-07-14T05:16:18.047Z,91.57
2018-07-14T05:17:24.311Z,91.00
2018-07-14T05:18:30.653Z,91.40
2018-07-14T05:19:36.898Z,89.89
2018-07-14T05:20:43.167Z,90.71
2018-07-14T05:21:49.442Z,90.89
2018-07-14T05:22:55.712Z,91.03
2018-07-14T05:24:02.052Z,90.89
2018-07-14T05:25:09.054Z,92.29
2018-07-14T05:26:15.303Z,92.43
2018-07-14T05:27:21.560Z,93.05
2018-07-14T05:28:27.881Z,91.92
2018-07-14T05:29:34.114Z,91.96
2018-07-14T05:30:40.413Z,92.62
2018-07-14T05:31:46.709Z,92.24
2018-07-14T05:32:52.962Z,92.03
2018-07-14T05:33:59.187Z,91.26
2018-07-14T05:35:05.470Z,88.87
2018-07-14T05:36:11.713Z,88.07
2018-07-14T05:37:17.999Z,90.06
2018-07-14T05:38:24.281Z,89.76
2018-07-14T05:39:30.596Z,88.82
2018-07-14T05:40:37.588Z,89.81
2018-07-14T05:41:43.838Z,89.50
2018-07-14T05:42:50.096Z,89.46
2018-07-14T05:43:56.349Z,90.38
2018-07-14T05:45:02.620Z,90.65
2018-07-14T05:46:09.406Z,89.39
2018-07-14T05:47:15.383Z,89.13
2018-07-14T05:48:21.636Z,88.37
2018-07-14T05:49:27.903Z,87.77
2018-07-14T05:50:34.147Z,87.29
2018-07-14T05:51:40.432Z,90.30
2018-07-14T05:52:46.346Z,90.36
2018-07-14T05:53:52.695Z,89.69
2018-07-14T05:54:58.963Z,88.81
2018-07-14T05:56:05.224Z,87.64
2018-07-14T05:57:11.498Z,86.69
2018-07-14T05:58:17.786Z,86.54
2018-07-14T05:59:24.083Z,87.27
2018-07-14T06:00:30.095Z,87.45
2018-07-14T06:01:36.639Z,89.23
2018-07-14T06:02:42.891Z,89.99
2018-07-14T06:03:48.931Z,90.39
2018-07-14T06:04:54.923Z,91.06
2018-07-14T06:06:01.049Z,91.15
2018-07-14T06:07:07.057Z,90.99
2018-07-14T06:08:13.325Z,91.15
2018-07-14T06:09:19.615Z,91.43
2018-07-14T06:10:25.565Z,91.04
2018-07-14T06:11:31.875Z,90.28
2018-07-14T06:12:38.141Z,89.72
2018-07-14T06:13:44.456Z,88.01
2018-07-14T06:14:50.712Z,88.14
2018-07-14T06:15:57.877Z,88.06
2018-07-14T06:17:04.911Z,86.86
2018-07-14T06:18:11.226Z,89.01
2018-07-14T06:19:17.703Z,89.85
2018-07-14T06:20:23.980Z,90.77
2018-07-14T06:21:30.237Z,90.66
2018-07-14T06:22:36.483Z,91.47
2018-07-14T06:23:42.769Z,90.67
2018-07-14T06:24:49.031Z,89.91
2018-07-14T06:25:55.032Z,88.53
2018-07-14T06:27:01.287Z,88.68
2018-07-14T06:28:07.581Z,88.57
2018-07-14T06:29:13.904Z,88.33
2018-07-14T06:30:19.837Z,87.93
2018-07-14T06:31:26.114Z,87.74
2018-07-14T06:32:32.710Z,86.50
2018-07-14T06:33:39.011Z,85.93
2018-07-14T06:34:45.054Z,86.18
2018-07-14T06:35:51.779Z,86.37
2018-07-14T06:36:58.111Z,84.95
2018-07-14T06:38:04.023Z,84.65
2018-07-14T06:39:10.025Z,85.09
2018-07-14T06:40:15.924Z,84.75
2018-07-14T06:41:22.181Z,85.57
2018-07-14T06:42:28.478Z,85.92
2018-07-14T06:43:34.737Z,86.73
2018-07-14T06:44:41.090Z,86.65
2018-07-14T06:45:49.138Z,86.13
2018-07-14T06:46:56.627Z,87.23
2018-07-14T06:48:02.545Z,87.20
2018-07-14T06:49:08.851Z,86.10
2018-07-14T06:50:15.775Z,84.45
2018-07-14T06:51:23.539Z,84.76
2018-07-14T06:52:32.134Z,86.99
2018-07-14T06:53:38.704Z,86.90
2018-07-14T06:54:44.977Z,86.16
2018-07-14T06:55:51.212Z,85.89
2018-07-14T06:56:57.507Z,86.87
2018-07-14T06:58:03.794Z,85.28
2018-07-14T06:59:10.081Z,85.26
2018-07-14T07:00:16.351Z,86.03
2018-07-14T07:01:22.648Z,86.65
2018-07-14T07:02:28.883Z,85.99
2018-07-14T07:03:35.654Z,85.93
2018-07-14T07:04:42.971Z,84.33
2018-07-14T07:05:49.824Z,84.26
2018-07-14T07:06:56.452Z,84.41
2018-07-14T07:08:03.066Z,83.60
2018-07-14T07:09:09.869Z,83.66
2018-07-14T07:10:16.356Z,82.03
2018-07-14T07:11:22.576Z,80.51
2018-07-14T07:12:29.187Z,81.25
2018-07-14T07:13:35.636Z,81.79
2018-07-14T07:14:42.641Z,81.29
2018-07-14T07:15:49.243Z,81.14
2018-07-14T07:16:55.842Z,81.13
2018-07-14T07:18:02.896Z,81.49
2018-07-14T07:19:09.718Z,81.21
2018-07-14T07:20:16.447Z,81.25
2018-07-14T07:21:23.402Z,78.40
2018-07-14T07:22:30.393Z,78.28
2018-07-14T07:23:37.104Z,77.77
2018-07-14T07:24:43.337Z,77.81
2018-07-14T07:25:49.536Z,78.78
2018-07-14T07:26:56.976Z,78.99
2018-07-14T07:28:03.598Z,78.42
2018-07-14T07:29:09.988Z,77.24
2018-07-14T07:30:16.466Z,77.38
2018-07-14T07:31:23.096Z,76.50
2018-07-14T07:32:29.574Z,77.04
2018-07-14T07:33:35.923Z,77.16
2018-07-14T07:34:42.472Z,76.91
2018-07-14T07:35:49.361Z,77.61
2018-07-14T07:36:55.435Z,76.01
2018-07-14T07:38:02.122Z,75.60
2018-07-14T07:39:09.689Z,76.14
2018-07-14T07:40:16.501Z,76.67
2018-07-14T07:41:22.982Z,75.70
2018-07-14T07:42:29.738Z,75.25
2018-07-14T07:43:36.459Z,75.98
2018-07-14T07:44:42.793Z,75.90
2018-07-14T07:45:49.307Z,76.63
2018-07-14T07:46:55.852Z,75.40
2018-07-14T07:48:03.265Z,74.48
2018-07-14T07:49:10.166Z,73.08
2018-07-14T07:50:18.467Z,73.65
2018-07-14T07:51:25.232Z,74.37
2018-07-14T07:52:31.508Z,74.05
2018-07-14T07:53:37.882Z,72.94
2018-07-14T07:54:45.234Z,71.92
2018-07-14T07:55:51.754Z,72.85
2018-07-14T07:56:58.082Z,71.75
2018-07-14T07:58:04.600Z,72.47
2018-07-14T07:59:11.030Z,71.06
2018-07-14T08:00:19.195Z,71.63
2018-07-14T08:01:25.620Z,70.68
2018-07-14T08:02:32.278Z,70.30
2018-07-14T08:03:39.179Z,71.94
2018-07-14T08:04:46.021Z,70.29
2018-07-14T08:05:52.146Z,70.09
2018-07-14T08:06:59.112Z,70.24
2018-07-14T08:08:05.535Z,69.12
2018-07-14T08:09:12.145Z,69.80
2018-07-14T08:10:19.207Z,70.15
2018-07-14T08:11:25.467Z,69.16
2018-07-14T08:12:32.006Z,70.27
2018-07-14T08:13:38.523Z,69.99
2018-07-14T08:14:45.196Z,68.57
2018-07-14T08:15:51.491Z,69.44
2018-07-14T08:16:57.853Z,69.91
2018-07-14T08:18:04.520Z,69.86
2018-07-14T08:19:10.869Z,71.20
2018-07-14T08:20:16.908Z,70.31
2018-07-14T08:21:23.684Z,68.78
2018-07-14T08:22:30.275Z,67.37
2018-07-14T08:23:36.644Z,67.14
2018-07-14T08:24:43.411Z,66.94
2018-07-14T08:25:50.496Z,68.17
2018-07-14T08:26:57.671Z,67.48
2018-07-14T08:28:04.170Z,66.87
2018-07-14T08:29:10.889Z,67.20
2018-07-14T08:30:18.427Z,67.43
2018-07-14T08:31:26.055Z,66.56
2018-07-14T08:32:32.319Z,65.25
2018-07-14T08:33:38.576Z,66.31
2018-07-14T08:34:45.702Z,66.75
2018-07-14T08:35:52.670Z,66.59
2018-07-14T08:36:59.275Z,66.38
2018-07-14T08:38:05.798Z,66.30
2018-07-14T08:39:12.508Z,65.56
2018-07-14T08:40:19.130Z,65.61
2018-07-14T08:41:26.308Z,66.28
2018-07-14T08:42:34.737Z,66.38
2018-07-14T08:43:41.334Z,66.43
2018-07-14T08:44:48.079Z,64.99
2018-07-14T08:45:54.195Z,64.30
2018-07-14T08:47:00.779Z,64.44
2018-07-14T08:48:07.335Z,63.85
2018-07-14T08:49:13.811Z,62.96
2018-07-14T08:50:21.274Z,62.83
2018-07-14T08:51:27.969Z,63.49
2018-07-14T08:52:34.820Z,63.28
2018-07-14T08:53:41.751Z,63.81
2018-07-14T08:54:48.595Z,63.14
2018-07-14T08:55:54.865Z,64.01
2018-07-14T08:57:03.917Z,63.79
2018-07-14T08:58:10.990Z,66.03
2018-07-14T08:59:18.043Z,63.82
2018-07-14T09:00:24.905Z,63.93
2018-07-14T09:01:31.278Z,62.41
2018-07-14T09:02:37.837Z,62.90
2018-07-14T09:03:44.774Z,62.81
2018-07-14T09:04:51.248Z,63.82
2018-07-14T09:05:57.532Z,63.90
2018-07-14T09:07:03.487Z,63.29
2018-07-14T09:08:10.728Z,63.82
2018-07-14T09:09:17.131Z,63.61
2018-07-14T09:10:23.709Z,63.86
2018-07-14T09:11:29.879Z,62.70
2018-07-14T09:12:36.415Z,60.58
2018-07-14T09:13:43.530Z,61.69
2018-07-14T09:14:49.789Z,59.91
2018-07-14T09:15:56.020Z,61.58
2018-07-14T09:17:02.267Z,61.06
2018-07-14T09:18:08.523Z,58.49
2018-07-14T09:19:14.572Z,59.29
2018-07-14T09:20:20.831Z,59.81
2018-07-14T09:21:27.099Z,59.28
2018-07-14T09:22:32.999Z,58.02
2018-07-14T09:23:39.247Z,58.78
2018-07-14T09:24:45.499Z,59.69
2018-07-14T09:25:51.749Z,59.47
2018-07-14T09:26:58.004Z,59.49
2018-07-14T09:28:04.282Z,59.12
2018-07-14T09:29:11.393Z,58.98
2018-07-14T09:30:17.799Z,58.74
2018-07-14T09:31:24.033Z,58.39
2018-07-14T09:32:30.452Z,57.68
2018-07-14T09:33:36.903Z,58.67
2018-07-14T09:34:42.931Z,60.31
2018-07-14T09:35:49.190Z,58.46
2018-07-14T09:36:55.466Z,58.57
2018-07-14T09:38:01.778Z,58.56
2018-07-14T09:39:08.283Z,59.94
2018-07-14T09:40:14.548Z,58.31
2018-07-14T09:41:20.550Z,58.68
2018-07-14T09:42:26.540Z,57.36
2018-07-14T09:43:32.790Z,56.56
2018-07-14T09:44:39.151Z,58.12
2018-07-14T09:45:45.576Z,57.19
2018-07-14T09:46:51.866Z,57.63
2018-07-14T09:47:58.154Z,56.74
2018-07-14T09:49:04.048Z,55.87
2018-07-14T09:50:10.340Z,55.65
2018-07-14T09:51:16.620Z,55.57
2018-07-14T09:52:22.913Z,57.04
2018-07-14T09:53:29.237Z,55.45
2018-07-14T09:54:35.542Z,56.37
2018-07-14T09:55:41.881Z,57.37
2018-07-14T09:56:47.839Z,56.04
2018-07-14T09:57:54.087Z,56.20
2018-07-14T09:59:00.374Z,55.92
2018-07-14T10:00:06.433Z,55.48
2018-07-14T10:01:12.738Z,56.00
2018-07-14T10:02:19.066Z,56.40
2018-07-14T10:03:25.434Z,55.61
2018-07-14T10:04:32.683Z,55.98
2018-07-14T10:05:39.828Z,56.23
2018-07-14T10:06:46.152Z,56.49
2018-07-14T10:07:52.479Z,54.48
2018-07-14T10:08:58.439Z,54.26
2018-07-14T10:10:04.615Z,53.58
2018-07-14T10:11:10.839Z,53.33
2018-07-14T10:12:17.123Z,55.09
2018-07-14T10:13:23.436Z,52.84
2018-07-14T10:14:29.748Z,51.79
2018-07-14T10:15:36.031Z,53.16
2018-07-14T10:16:42.321Z,54.93
2018-07-14T10:17:48.736Z,54.57
2018-07-14T10:18:55.156Z,55.11
2018-07-14T10:20:01.122Z,53.79
2018-07-14T10:21:07.738Z,54.17
2018-07-14T10:22:14.064Z,53.72
2018-07-14T10:23:20.499Z,53.66
2018-07-14T10:24:26.793Z,53.85
2018-07-14T10:25:33.136Z,53.85
2018-07-14T10:26:39.552Z,52.85
2018-07-14T10:27:45.846Z,53.45
2018-07-14T10:28:52.182Z,53.49
2018-07-14T10:29:58.495Z,52.65
2018-07-14T10:31:04.459Z,52.79
2018-07-14T10:32:10.839Z,52.09
2018-07-14T10:33:17.204Z,50.69
2018-07-14T10:34:23.506Z,50.78
2018-07-14T10:35:30.288Z,52.06
2018-07-14T10:36:36.727Z,49.05
2018-07-14T10:37:43.044Z,49.25
2018-07-14T10:38:49.158Z,49.62
2018-07-14T10:39:55.621Z,50.25
2018-07-14T10:41:01.927Z,51.96
2018-07-14T10:42:07.998Z,48.96
2018-07-14T10:43:14.455Z,50.61
2018-07-14T10:44:20.710Z,51.65
2018-07-14T10:45:26.985Z,52.89
2018-07-14T10:46:33.272Z,50.39
2018-07-14T10:47:39.567Z,49.56
2018-07-14T10:48:45.888Z,49.61
2018-07-14T10:49:52.165Z,49.54
2018-07-14T10:50:58.489Z,49.57
2018-07-14T10:52:04.404Z,49.98
2018-07-14T10:53:10.563Z,47.98
2018-07-14T10:54:16.903Z,47.62
2018-07-14T10:55:23.165Z,47.75
2018-07-14T10:56:30.253Z,47.99
2018-07-14T10:57:37.301Z,47.88
2018-07-14T10:58:43.571Z,48.14
2018-07-14T10:59:49.888Z,48.39
2018-07-14T11:00:56.201Z,48.84
2018-07-14T11:02:02.520Z,48.71
2018-07-14T11:03:08.488Z,46.85
2018-07-14T11:04:14.434Z,47.10
2018-07-14T11:05:20.732Z,48.11
2018-07-14T11:06:26.703Z,47.88
2018-07-14T11:07:32.978Z,48.39
2018-07-14T11:08:38.995Z,47.75
2018-07-14T11:09:44.972Z,48.16
2018-07-14T11:10:50.991Z,47.32
2018-07-14T11:11:57.061Z,46.01
2018-07-14T11:13:03.053Z,46.48
2018-07-14T11:14:09.339Z,48.08
2018-07-14T11:15:16.031Z,46.91
2018-07-14T11:16:22.061Z,46.89
2018-07-14T11:17:28.324Z,45.72
2018-07-14T11:18:34.619Z,46.50
2018-07-14T11:19:40.907Z,46.61
2018-07-14T11:20:46.876Z,45.90
2018-07-14T11:21:52.852Z,45.28
2018-07-14T11:22:58.863Z,45.03
2018-07-14T11:24:04.736Z,45.60
2018-07-14T11:25:10.731Z,47.17
2018-07-14T11:26:17.048Z,47.58
2018-07-14T11:27:23.302Z,45.10
2018-07-14T11:28:29.601Z,43.47
2018-07-14T11:29:35.544Z,44.17
2018-07-14T11:30:41.843Z,44.02
2018-07-14T11:31:47.875Z,44.45
2018-07-14T11:32:54.942Z,44.90
2018-07-14T11:34:01.240Z,46.64
2018-07-14T11:35:06.518Z,44.98
2018-07-14T11:36:12.233Z,45.46
2018-07-14T11:37:18.467Z,45.38
2018-07-14T11:38:24.731Z,48.12
2018-07-14T11:39:31.004Z,45.78
2018-07-14T11:40:36.310Z,46.06
2018-07-14T11:41:42.581Z,47.40
2018-07-14T11:42:48.822Z,46.89
2018-07-14T11:43:55.050Z,46.89
2018-07-14T11:45:00.992Z,46.79
2018-07-14T11:46:06.603Z,47.49
2018-07-14T11:47:12.622Z,48.33
2018-07-14T11:48:18.855Z,47.56
2018-07-14T11:49:25.372Z,47.46
2018-07-14T11:50:31.033Z,47.09
2018-07-14T11:51:36.767Z,45.72
2018-07-14T11:52:42.411Z,45.44
2018-07-14T11:53:48.672Z,46.08
2018-07-14T11:54:54.971Z,45.52
2018-07-14T11:56:01.812Z,45.26
2018-07-14T11:57:07.124Z,45.11
2018-07-14T11:58:13.084Z,45.87
2018-07-14T11:59:19.351Z,45.79
2018-07-14T12:00:26.339Z,46.24
2018-07-14T12:01:32.345Z,45.23
2018-07-14T12:02:38.329Z,45.92
2018-07-14T12:03:44.284Z,45.24
2018-07-14T12:04:50.259Z,44.48
2018-07-14T12:05:56.256Z,43.84
2018-07-14T12:07:02.257Z,44.41
2018-07-14T12:08:08.247Z,45.54
2018-07-14T12:09:14.247Z,44.42
2018-07-14T12:10:20.917Z,46.01
2018-07-14T12:11:26.563Z,44.93
2018-07-14T12:12:32.560Z,44.38
2018-07-14T12:13:38.319Z,45.26
2018-07-14T12:14:44.330Z,44.76
2018-07-14T12:15:51.383Z,43.58
2018-07-14T12:16:57.382Z,43.78
2018-07-14T12:18:02.987Z,43.64
2018-07-14T12:19:08.948Z,43.12
2018-07-14T12:20:14.980Z,43.55
2018-07-14T12:21:20.676Z,42.53
2018-07-14T12:22:26.800Z,42.53
2018-07-14T12:23:32.622Z,42.28
2018-07-14T12:24:38.707Z,42.12
2018-07-14T12:25:45.149Z,42.19
2018-07-14T12:26:51.754Z,42.16
2018-07-14T12:27:57.929Z,42.52
2018-07-14T12:29:03.933Z,44.51
2018-07-14T12:30:09.232Z,43.77
2018-07-14T12:31:15.517Z,43.75
2018-07-14T12:32:22.196Z,43.11
2018-07-14T12:33:27.960Z,43.57
2018-07-14T12:34:34.011Z,43.44
2018-07-14T12:35:39.785Z,43.61
2018-07-14T12:36:45.899Z,43.30
2018-07-14T12:37:52.047Z,44.13
2018-07-14T12:38:58.024Z,42.22
2018-07-14T12:40:03.887Z,42.69
2018-07-14T12:41:09.524Z,41.62
2018-07-14T12:42:15.511Z,42.06
2018-07-14T12:43:21.213Z,42.79
2018-07-14T12:44:26.891Z,43.03
2018-07-14T12:45:33.428Z,43.80
2018-07-14T12:46:40.209Z,43.03
2018-07-14T12:47:46.164Z,43.11
2018-07-14T12:48:51.866Z,43.20
2018-07-14T12:49:57.567Z,43.73
2018-07-14T12:51:03.237Z,43.49
2018-07-14T12:52:08.922Z,44.02
2018-07-14T12:53:14.610Z,43.68
2018-07-14T12:54:20.620Z,43.74
2018-07-14T12:55:26.769Z,43.43
2018-07-14T12:56:33.050Z,43.05
2018-07-14T12:57:38.705Z,43.27
2018-07-14T12:58:44.689Z,42.98
2018-07-14T12:59:49.940Z,43.29
2018-07-14T13:00:55.924Z,43.49
2018-07-14T13:02:01.940Z,43.23
2018-07-14T13:03:07.914Z,43.95
2018-07-14T13:04:14.772Z,42.54
2018-07-14T13:05:20.055Z,42.12
2018-07-14T13:06:26.151Z,42.96
2018-07-14T13:07:32.415Z,41.21
2018-07-14T13:08:38.555Z,42.16
2018-07-14T13:09:44.485Z,41.76
2018-07-14T13:10:50.103Z,42.16
2018-07-14T13:11:56.095Z,41.85
2018-07-14T13:13:02.074Z,41.87
2018-07-14T13:14:08.294Z,41.78
2018-07-14T13:15:13.905Z,41.62
2018-07-14T13:16:19.858Z,40.94
2018-07-14T13:17:25.501Z,42.05
2018-07-14T13:18:31.248Z,40.68
2018-07-14T13:19:37.215Z,41.99
2018-07-14T13:20:43.171Z,43.01
2018-07-14T13:21:49.129Z,42.47
2018-07-14T13:22:55.129Z,42.90
2018-07-14T13:24:00.777Z,42.89
2018-07-14T13:25:06.482Z,41.84
2018-07-14T13:26:12.461Z,43.06
2018-07-14T13:27:18.454Z,42.17
2018-07-14T13:28:24.490Z,41.32
2018-07-14T13:29:30.109Z,41.84
2018-07-14T13:30:36.081Z,41.48
2018-07-14T13:31:42.022Z,43.69
2018-07-14T13:32:47.674Z,42.51
2018-07-14T13:33:53.672Z,41.63
2018-07-14T13:34:59.591Z,43.76
2018-07-14T13:36:05.661Z,41.79
2018-07-14T13:37:11.493Z,41.96
2018-07-14T13:38:17.456Z,42.79
2018-07-14T13:39:23.086Z,40.26
2018-07-14T13:40:29.060Z,42.53
2018-07-14T13:41:35.107Z,41.85
2018-07-14T13:42:41.111Z,41.34
2018-07-14T13:43:47.065Z,42.14
2018-07-14T13:44:53.029Z,41.73
2018-07-14T13:45:58.661Z,41.31
2018-07-14T13:47:04.303Z,42.08
2018-07-14T13:48:10.302Z,42.37
2018-07-14T13:49:16.239Z,42.46
2018-07-14T13:50:22.182Z,42.28
2018-07-14T13:51:27.837Z,43.46
2018-07-14T13:52:33.862Z,43.82
2018-07-14T13:53:39.829Z,42.27
2018-07-14T13:54:45.830Z,41.97
2018-07-14T13:55:51.602Z,43.08
2018-07-14T13:56:56.962Z,42.78
2018-07-14T13:58:03.222Z,41.58
2018-07-14T13:59:09.214Z,40.25
2018-07-14T14:00:14.879Z,41.49
2018-07-14T14:01:20.852Z,41.81
2018-07-14T14:02:26.812Z,42.05
2018-07-14T14:03:32.775Z,41.69
2018-07-14T14:04:38.736Z,41.27
2018-07-14T14:05:44.705Z,41.71
2018-07-14T14:06:50.712Z,40.81
2018-07-14T14:07:56.753Z,41.18
2018-07-14T14:09:02.525Z,41.00
2018-07-14T14:10:07.911Z,40.98
2018-07-14T14:11:13.579Z,43.05
2018-07-14T14:12:19.390Z,42.07
2018-07-14T14:13:25.398Z,42.43